Time;durP1;ratioP1;P1;durP2;ratioP2;P2;SDS_P1;SDS_P2;PMS_P1;PMS_P2;Temp;Humidity;BMP_temperature;BMP_pressure;BME280_temperature;BME280_humidity;BME280_pressure;Samples;Min_cycle;Max_cycle;Signal;HPM_P1;HPM_P2
2023/08/05 00:01:10;;;;;;;0.10;0.10;;;;;;;;;;6231539;22;20035;-90
2023/08/05 00:03:55;;;;;;;0.10;0.10;;;;;;;;;;6245425;22;20020;-91
2023/08/05 00:09:03;;;;;;;0.20;0.20;;;;;;;;;;6222550;22;20020;-90
2023/08/05 00:14:15;;;;;;;0.20;0.20;;;;;;;;;;6196638;22;20035;-91
2023/08/05 00:19:20;;;;;;;0.10;0.10;;;;;;;;;;6197265;22;20233;-90
2023/08/05 00:24:21;;;;;;;0.20;0.20;;;;;;;;;;6216284;22;20020;-90
2023/08/05 00:26:49;;;;;;;0.10;0.10;;;;;;;;;;6210817;22;20015;-90
2023/08/05 00:50:15;;;;;;;0.20;0.20;;;;;;;;;;6181956;22;20088;-90
2023/08/05 01:01:07;;;;;;;0.28;0.28;;;;;;;;;;6195857;22;20036;-91
2023/08/05 01:19:48;;;;;;;0.22;0.22;;;;;;;;;;6248409;22;20038;-90
2023/08/05 01:22:40;;;;;;;0.20;0.20;;;;;;;;;;6264162;22;20008;-90
2023/08/05 01:25:22;;;;;;;0.20;0.20;;;;;;;;;;6239610;22;20009;-91
2023/08/05 01:33:18;;;;;;;0.20;0.20;;;;;;;;;;6173076;22;20253;-90
2023/08/05 01:36:02;;;;;;;0.10;0.10;;;;;;;;;;6240142;22;20005;-91
2023/08/05 01:38:55;;;;;;;0.10;0.10;;;;;;;;;;6247466;23;20041;-93
2023/08/05 01:42:00;;;;;;;0.05;0.05;;;;;;;;;;6269704;22;20029;-91
2023/08/05 01:44:50;;;;;;;0.20;0.20;;;;;;;;;;6217482;22;20052;-93
2023/08/05 01:49:57;;;;;;;0.20;0.20;;;;;;;;;;6254739;22;20024;-90
2023/08/05 01:52:53;;;;;;;0.20;0.20;;;;;;;;;;6265869;22;20052;-92
2023/08/05 02:01:14;;;;;;;0.10;0.10;;;;;;;;;;6236938;22;20013;-91
2023/08/05 02:03:43;;;;;;;0.20;0.20;;;;;;;;;;6202787;23;20005;-91
2023/08/05 02:06:14;;;;;;;0.17;0.17;;;;;;;;;;6161703;22;20021;-91
2023/08/05 02:08:50;;;;;;;0.30;0.30;;;;;;;;;;6187411;23;20025;-92
2023/08/05 02:11:34;;;;;;;0.20;0.20;;;;;;;;;;6208679;23;20071;-91
2023/08/05 02:14:05;;;;;;;0.10;0.10;;;;;;;;;;6204334;23;20020;-92
2023/08/05 02:16:40;;;;;;;0.20;0.20;;;;;;;;;;6181333;22;20004;-93
2023/08/05 02:19:35;;;;;;;0.10;0.10;;;;;;;;;;6249792;22;20015;-90
2023/08/05 02:29:50;;;;;;;0.30;0.30;;;;;;;;;;6236558;22;20034;-93
2023/08/05 02:32:16;;;;;;;0.25;0.25;;;;;;;;;;6178053;23;20096;-92
2023/08/05 02:34:47;;;;;;;0.30;0.30;;;;;;;;;;6200837;23;20021;-91
2023/08/05 02:48:30;;;;;;;0.10;0.10;;;;;;;;;;6262846;22;20024;-90
2023/08/05 02:51:07;;;;;;;0.20;0.20;;;;;;;;;;6244256;22;20004;-92
2023/08/05 02:59:12;;;;;;;0.13;0.13;;;;;;;;;;6179826;22;20036;-91
2023/08/05 03:13:18;;;;;;;0.30;0.30;;;;;;;;;;6280369;22;20044;-91
2023/08/05 03:21:12;;;;;;;0.10;0.10;;;;;;;;;;6209069;22;20087;-92
2023/08/05 03:37:01;;;;;;;0.17;0.17;;;;;;;;;;6229615;22;20012;-92
2023/08/05 03:42:22;;;;;;;0.10;0.10;;;;;;;;;;6237592;22;20016;-92
2023/08/05 03:50:49;;;;;;;0.20;0.20;;;;;;;;;;6180951;22;20005;-90
2023/08/05 03:53:22;;;;;;;0.10;0.10;;;;;;;;;;6212387;23;20027;-89
2023/08/05 03:56:13;;;;;;;0.10;0.10;;;;;;;;;;6237869;22;20017;-91
2023/08/05 04:09:06;;;;;;;0.10;0.10;;;;;;;;;;6173193;22;20020;-91
2023/08/05 04:11:32;;;;;;;0.30;0.30;;;;;;;;;;6182165;22;20004;-91
2023/08/05 04:16:34;;;;;;;0.20;0.20;;;;;;;;;;6198147;22;20088;-91
2023/08/05 04:50:42;;;;;;;0.10;0.10;;;;;;;;;;6213721;22;20004;-90
2023/08/05 04:53:16;;;;;;;0.20;0.20;;;;;;;;;;6297701;22;20012;-90
2023/08/05 04:55:45;;;;;;;0.10;0.10;;;;;;;;;;6265708;22;20005;-90
2023/08/05 04:58:27;;;;;;;0.20;0.20;;;;;;;;;;6167765;22;20031;-93
2023/08/05 05:01:00;;;;;;;0.30;0.30;;;;;;;;;;6193743;22;20021;-91
2023/08/05 05:03:27;;;;;;;0.10;0.10;;;;;;;;;;6214485;22;20020;-92
2023/08/05 05:05:55;;;;;;;0.10;0.10;;;;;;;;;;6211135;22;20000;-92
2023/08/05 05:21:23;;;;;;;0.17;0.17;;;;;;;;;;6236251;22;20042;-91
2023/08/05 05:32:02;;;;;;;0.10;0.10;;;;;;;;;;6170903;22;20031;-91
2023/08/05 05:34:42;;;;;;;0.20;0.20;;;;;;;;;;6216472;22;20056;-90
2023/08/05 05:40:04;;;;;;;0.20;0.20;;;;;;;;;;6221498;22;20036;-92
2023/08/05 05:42:33;;;;;;;0.10;0.10;;;;;;;;;;6281205;22;20020;-91
2023/08/05 05:45:18;;;;;;;0.15;0.15;;;;;;;;;;6215250;23;20025;-90
2023/08/05 05:47:44;;;;;;;0.20;0.20;;;;;;;;;;6210905;22;20000;-91
2023/08/05 05:50:10;;;;;;;0.20;0.20;;;;;;;;;;6210388;23;20032;-90
2023/08/05 05:52:38;;;;;;;0.10;0.10;;;;;;;;;;6237012;22;20021;-90
2023/08/05 05:55:04;;;;;;;0.10;0.10;;;;;;;;;;6210361;23;20021;-91
2023/08/05 05:57:34;;;;;;;0.10;0.10;;;;;;;;;;6236911;22;20011;-92
2023/08/05 06:00:05;;;;;;;0.20;0.20;;;;;;;;;;6232030;23;20012;-91
2023/08/05 06:02:34;;;;;;;0.17;0.17;;;;;;;;;;6210349;22;20008;-92
2023/08/05 06:05:00;;;;;;;0.17;0.17;;;;;;;;;;6209025;23;20044;-91
2023/08/05 06:07:26;;;;;;;0.20;0.20;;;;;;;;;;6210149;23;20001;-90
2023/08/05 06:09:53;;;;;;;0.10;0.10;;;;;;;;;;6211135;23;20025;-91
2023/08/05 06:12:22;;;;;;;0.10;0.10;;;;;;;;;;6207735;23;20028;-90
2023/08/05 06:14:49;;;;;;;0.10;0.10;;;;;;;;;;6234942;22;20020;-90
2023/08/05 06:17:27;;;;;;;0.10;0.10;;;;;;;;;;6308113;22;20050;-90
2023/08/05 06:19:53;;;;;;;0.10;0.10;;;;;;;;;;6208909;23;20070;-88
2023/08/05 06:22:20;;;;;;;0.10;0.10;;;;;;;;;;6207874;23;20031;-90
2023/08/05 06:24:46;;;;;;;0.20;0.20;;;;;;;;;;6207745;23;20064;-90
2023/08/05 06:27:13;;;;;;;0.20;0.20;;;;;;;;;;6337365;22;20073;-88
2023/08/05 06:29:58;;;;;;;0.10;0.10;;;;;;;;;;6234360;23;20016;-89
2023/08/05 06:32:29;;;;;;;0.10;0.10;;;;;;;;;;6235289;23;20048;-89
2023/08/05 06:34:55;;;;;;;0.05;0.05;;;;;;;;;;6234112;23;20020;-88
2023/08/05 06:37:22;;;;;;;0.20;0.20;;;;;;;;;;6210005;23;20025;-88
2023/08/05 06:39:50;;;;;;;0.10;0.10;;;;;;;;;;6210091;23;20027;-90
2023/08/05 06:42:16;;;;;;;0.17;0.17;;;;;;;;;;6210531;23;20042;-89
2023/08/05 06:44:47;;;;;;;0.20;0.20;;;;;;;;;;6232885;22;20024;-89
2023/08/05 06:47:17;;;;;;;0.10;0.10;;;;;;;;;;6257603;22;20060;-90
2023/08/05 06:49:46;;;;;;;0.10;0.10;;;;;;;;;;6239052;22;20032;-88
2023/08/05 06:52:12;;;;;;;0.10;0.10;;;;;;;;;;6211941;23;20020;-90
2023/08/05 06:54:41;;;;;;;0.15;0.15;;;;;;;;;;6215483;22;20012;-87
2023/08/05 06:57:08;;;;;;;0.10;0.10;;;;;;;;;;6217315;23;20043;-89
2023/08/05 06:59:34;;;;;;;0.20;0.20;;;;;;;;;;6241909;22;20028;-88
2023/08/05 07:02:02;;;;;;;0.10;0.10;;;;;;;;;;6241690;22;20063;-88
2023/08/05 07:04:38;;;;;;;0.10;0.10;;;;;;;;;;6242348;22;20004;-86
2023/08/05 07:07:04;;;;;;;0.10;0.10;;;;;;;;;;6214395;23;20004;-88
2023/08/05 07:09:48;;;;;;;0.10;0.10;;;;;;;;;;6245352;22;20031;-87
2023/08/05 07:12:14;;;;;;;0.08;0.08;;;;;;;;;;6216657;23;20091;-87
2023/08/05 07:14:44;;;;;;;0.00;0.00;;;;;;;;;;6244044;22;20049;-86
2023/08/05 07:17:27;;;;;;;0.20;0.20;;;;;;;;;;6242649;22;20032;-87
2023/08/05 07:19:57;;;;;;;0.10;0.10;;;;;;;;;;6217399;22;20052;-87
2023/08/05 07:22:28;;;;;;;0.10;0.10;;;;;;;;;;6219673;22;20005;-87
2023/08/05 07:24:57;;;;;;;0.00;0.00;;;;;;;;;;6238821;23;20454;-87
2023/08/05 07:27:30;;;;;;;0.10;0.10;;;;;;;;;;6217684;22;20004;-86
2023/08/05 07:30:11;;;;;;;0.10;0.10;;;;;;;;;;6237692;22;20025;-88
2023/08/05 07:32:42;;;;;;;0.10;0.10;;;;;;;;;;6295170;22;20004;-87
2023/08/05 07:35:13;;;;;;;0.10;0.10;;;;;;;;;;6247667;22;20080;-87
2023/08/05 07:37:52;;;;;;;0.10;0.10;;;;;;;;;;6273978;22;20024;-86
2023/08/05 07:43:18;;;;;;;0.20;0.20;;;;;;;;;;6216942;22;20024;-87
2023/08/05 07:48:24;;;;;;;0.20;0.20;;;;;;;;;;6248703;22;20238;-87
2023/08/05 07:58:45;;;;;;;0.00;0.00;;;;;;;;;;6235576;22;20004;-88
2023/08/05 08:04:02;;;;;;;0.10;0.10;;;;;;;;;;6236413;22;20050;-89
2023/08/05 08:09:42;;;;;;;0.10;0.10;;;;;;;;;;6269814;22;20031;-89
2023/08/05 08:12:19;;;;;;;0.15;0.15;;;;;;;;;;6219878;22;20028;-87
2023/08/05 08:14:51;;;;;;;0.00;0.00;;;;;;;;;;6218268;23;20000;-89
2023/08/05 08:17:21;;;;;;;0.10;0.10;;;;;;;;;;6215588;22;20031;-88
2023/08/05 08:22:36;;;;;;;0.13;0.13;;;;;;;;;;6261335;22;20031;-87
2023/08/05 08:25:21;;;;;;;0.10;0.10;;;;;;;;;;6265070;22;20051;-87
2023/08/05 08:28:11;;;;;;;0.10;0.10;;;;;;;;;;6243590;22;20004;-86
2023/08/05 08:30:53;;;;;;;0.05;0.05;;;;;;;;;;6266809;22;20041;-88
2023/08/05 08:33:38;;;;;;;0.00;0.00;;;;;;;;;;6262110;23;20019;-89
2023/08/05 08:36:11;;;;;;;0.10;0.10;;;;;;;;;;6266092;22;20030;-89
2023/08/05 08:38:40;;;;;;;0.10;0.10;;;;;;;;;;6240162;22;20050;-87
2023/08/05 08:41:13;;;;;;;0.20;0.20;;;;;;;;;;6216055;22;20004;-87
2023/08/05 08:43:50;;;;;;;0.10;0.10;;;;;;;;;;6240637;22;20029;-89
2023/08/05 08:46:21;;;;;;;0.03;0.03;;;;;;;;;;6235756;23;20016;-88
2023/08/05 08:48:56;;;;;;;0.00;0.00;;;;;;;;;;6189448;22;20005;-87
2023/08/05 08:51:32;;;;;;;0.10;0.10;;;;;;;;;;6213174;23;20012;-89
2023/08/05 08:54:04;;;;;;;0.08;0.08;;;;;;;;;;6215979;22;20017;-89
2023/08/05 08:56:37;;;;;;;0.20;0.20;;;;;;;;;;6216587;23;20016;-88
2023/08/05 08:59:21;;;;;;;0.10;0.10;;;;;;;;;;6243737;23;20056;-88
2023/08/05 09:01:48;;;;;;;0.10;0.10;;;;;;;;;;6215783;23;20023;-88
2023/08/05 09:04:15;;;;;;;0.10;0.10;;;;;;;;;;6191545;23;20023;-89
2023/08/05 09:06:43;;;;;;;0.00;0.00;;;;;;;;;;6191464;23;20016;-88
2023/08/05 09:09:09;;;;;;;0.00;0.00;;;;;;;;;;6191259;23;20026;-89
2023/08/05 09:11:35;;;;;;;0.00;0.00;;;;;;;;;;6191530;23;20051;-88
2023/08/05 09:14:03;;;;;;;0.10;0.10;;;;;;;;;;6191522;23;20020;-88
2023/08/05 09:16:30;;;;;;;0.10;0.10;;;;;;;;;;6191399;23;20042;-89
2023/08/05 09:18:56;;;;;;;0.40;0.40;;;;;;;;;;6191664;23;20020;-89
2023/08/05 09:21:23;;;;;;;0.10;0.10;;;;;;;;;;6191583;23;20388;-89
2023/08/05 09:23:49;;;;;;;0.10;0.10;;;;;;;;;;6191365;23;20020;-88
2023/08/05 09:26:15;;;;;;;0.03;0.03;;;;;;;;;;6216670;23;20015;-90
2023/08/05 09:28:41;;;;;;;0.00;0.00;;;;;;;;;;6167781;22;20400;-90
2023/08/05 09:31:14;;;;;;;0.08;0.08;;;;;;;;;;6192420;23;20013;-88
2023/08/05 09:33:41;;;;;;;0.03;0.03;;;;;;;;;;6191899;22;20027;-89
2023/08/05 09:36:12;;;;;;;0.00;0.00;;;;;;;;;;6191602;22;20016;-89
2023/08/05 09:38:41;;;;;;;0.00;0.00;;;;;;;;;;6167017;23;20016;-89
2023/08/05 09:41:08;;;;;;;0.10;0.10;;;;;;;;;;6192230;23;20022;-89
2023/08/05 09:43:39;;;;;;;0.00;0.00;;;;;;;;;;6190970;23;20020;-88
2023/08/05 09:46:11;;;;;;;0.10;0.10;;;;;;;;;;6190633;23;20447;-85
2023/08/05 09:48:42;;;;;;;0.10;0.10;;;;;;;;;;6190275;23;20051;-86
2023/08/05 09:51:09;;;;;;;0.00;0.00;;;;;;;;;;6190230;23;20016;-87
2023/08/05 09:53:36;;;;;;;0.10;0.10;;;;;;;;;;6189830;23;20351;-86
2023/08/05 09:56:06;;;;;;;0.10;0.10;;;;;;;;;;6190592;23;20332;-87
2023/08/05 09:58:35;;;;;;;0.10;0.10;;;;;;;;;;6190449;23;20020;-88
2023/08/05 10:01:01;;;;;;;0.10;0.10;;;;;;;;;;6190796;23;20035;-88
2023/08/05 10:03:28;;;;;;;0.10;0.10;;;;;;;;;;6190006;23;20405;-87
2023/08/05 10:05:56;;;;;;;0.00;0.00;;;;;;;;;;6190375;23;20028;-86
2023/08/05 10:08:24;;;;;;;0.10;0.10;;;;;;;;;;6191699;22;20016;-87
2023/08/05 10:10:50;;;;;;;0.10;0.10;;;;;;;;;;6191383;23;20091;-86
2023/08/05 10:13:19;;;;;;;0.10;0.10;;;;;;;;;;6190096;23;20347;-86
2023/08/05 10:15:51;;;;;;;0.10;0.10;;;;;;;;;;6191631;23;20338;-87
2023/08/05 10:18:19;;;;;;;0.08;0.08;;;;;;;;;;6190942;23;20047;-89
2023/08/05 10:20:52;;;;;;;0.00;0.00;;;;;;;;;;6191340;23;20455;-89
2023/08/05 10:23:18;;;;;;;0.10;0.10;;;;;;;;;;6191394;22;20393;-87
2023/08/05 10:25:48;;;;;;;0.10;0.10;;;;;;;;;;6190547;23;20388;-88
2023/08/05 10:28:42;;;;;;;0.10;0.10;;;;;;;;;;6191439;23;20015;-87
2023/08/05 10:31:34;;;;;;;0.10;0.10;;;;;;;;;;6187585;23;20023;-88
2023/08/05 10:34:10;;;;;;;0.00;0.00;;;;;;;;;;6191045;23;20033;-89
2023/08/05 10:36:48;;;;;;;0.57;0.43;;;;;;;;;;6188919;23;20351;-89
2023/08/05 10:39:32;;;;;;;0.00;0.00;;;;;;;;;;6215988;23;20047;-89
2023/08/05 10:41:59;;;;;;;0.10;0.10;;;;;;;;;;6190008;23;20065;-88
2023/08/05 10:44:36;;;;;;;0.00;0.00;;;;;;;;;;6190882;23;20027;-89
2023/08/05 10:47:11;;;;;;;0.10;0.10;;;;;;;;;;6190557;23;20016;-86
2023/08/05 10:49:42;;;;;;;0.30;0.30;;;;;;;;;;6166233;23;20016;-88
2023/08/05 10:55:48;;;;;;;0.10;0.10;;;;;;;;;;6252509;23;20007;-86
2023/08/05 10:58:14;;;;;;;0.10;0.10;;;;;;;;;;6216908;23;20055;-87
2023/08/05 11:00:42;;;;;;;0.03;0.03;;;;;;;;;;6190678;23;20055;-88
2023/08/05 11:03:27;;;;;;;0.20;0.20;;;;;;;;;;6188916;23;20027;-87
2023/08/05 11:06:07;;;;;;;0.10;0.10;;;;;;;;;;6215397;23;20027;-87
2023/08/05 11:08:34;;;;;;;0.10;0.10;;;;;;;;;;6216464;23;20145;-87
2023/08/05 11:11:01;;;;;;;0.00;0.00;;;;;;;;;;6191834;23;20388;-89
2023/08/05 11:13:27;;;;;;;0.10;0.10;;;;;;;;;;6190412;23;20062;-89
2023/08/05 11:16:05;;;;;;;0.10;0.10;;;;;;;;;;6190111;23;20635;-89
2023/08/05 11:18:31;;;;;;;0.10;0.10;;;;;;;;;;6186545;22;20024;-88
2023/08/05 11:20:58;;;;;;;0.10;0.10;;;;;;;;;;6191270;23;20020;-88
2023/08/05 11:26:21;;;;;;;0.10;0.10;;;;;;;;;;6216898;23;20024;-90
2023/08/05 11:31:51;;;;;;;0.20;0.20;;;;;;;;;;6214907;22;20042;-89
2023/08/05 11:34:21;;;;;;;0.20;0.20;;;;;;;;;;6193731;23;20031;-91
2023/08/05 11:36:55;;;;;;;0.10;0.10;;;;;;;;;;6191581;23;20041;-90
2023/08/05 11:39:24;;;;;;;0.10;0.10;;;;;;;;;;6192545;23;20431;-90
2023/08/05 11:41:50;;;;;;;0.03;0.03;;;;;;;;;;6191340;23;20339;-91
2023/08/05 11:44:20;;;;;;;0.10;0.10;;;;;;;;;;6190702;23;20019;-91
2023/08/05 11:46:46;;;;;;;0.13;0.13;;;;;;;;;;6216876;23;20500;-91
2023/08/05 11:49:13;;;;;;;0.00;0.00;;;;;;;;;;6193476;23;20499;-90
2023/08/05 11:51:52;;;;;;;0.00;0.00;;;;;;;;;;6193144;23;20076;-91
2023/08/05 11:54:28;;;;;;;0.10;0.10;;;;;;;;;;6194126;23;20012;-90
2023/08/05 11:57:01;;;;;;;0.00;0.00;;;;;;;;;;6195088;23;20016;-89
2023/08/05 12:02:19;;;;;;;0.00;0.00;;;;;;;;;;6215608;23;20024;-87
2023/08/05 12:04:49;;;;;;;0.10;0.10;;;;;;;;;;6190690;23;20459;-90
2023/08/05 12:07:18;;;;;;;0.10;0.10;;;;;;;;;;6192334;23;20052;-90
2023/08/05 12:10:17;;;;;;;0.10;0.10;;;;;;;;;;6190735;23;20043;-90
2023/08/05 12:12:45;;;;;;;0.10;0.10;;;;;;;;;;6190984;23;20849;-89
2023/08/05 12:15:11;;;;;;;0.10;0.10;;;;;;;;;;6191201;23;20016;-89
2023/08/05 12:17:37;;;;;;;0.00;0.00;;;;;;;;;;6190367;23;20080;-88
2023/08/05 12:20:05;;;;;;;0.10;0.10;;;;;;;;;;6191229;23;20069;-90
2023/08/05 12:22:31;;;;;;;0.10;0.10;;;;;;;;;;6193171;23;20062;-91
2023/08/05 12:24:57;;;;;;;0.10;0.10;;;;;;;;;;6191543;23;20016;-90
2023/08/05 12:27:23;;;;;;;0.38;0.38;;;;;;;;;;6194334;23;20521;-90
2023/08/05 12:29:49;;;;;;;0.03;0.03;;;;;;;;;;6192370;23;20067;-90
2023/08/05 12:32:26;;;;;;;0.10;0.10;;;;;;;;;;6190458;23;20027;-89
2023/08/05 12:35:23;;;;;;;0.00;0.00;;;;;;;;;;6217107;23;20020;-90
2023/08/05 12:38:18;;;;;;;0.00;0.00;;;;;;;;;;6192743;23;20019;-89
2023/08/05 12:40:44;;;;;;;0.10;0.10;;;;;;;;;;6191202;23;20095;-91
2023/08/05 12:43:12;;;;;;;0.00;0.00;;;;;;;;;;6190845;23;20046;-91
2023/08/05 12:45:38;;;;;;;0.15;0.15;;;;;;;;;;6191136;23;20016;-87
2023/08/05 12:48:04;;;;;;;0.00;0.00;;;;;;;;;;6190881;23;20442;-87
2023/08/05 12:50:30;;;;;;;0.00;0.00;;;;;;;;;;6190372;23;20016;-86
2023/08/05 12:52:58;;;;;;;0.10;0.10;;;;;;;;;;6189797;23;20009;-87
2023/08/05 12:55:24;;;;;;;0.10;0.10;;;;;;;;;;6190784;22;20027;-88
2023/08/05 12:57:50;;;;;;;0.00;0.00;;;;;;;;;;6190955;23;20027;-87
2023/08/05 13:00:16;;;;;;;0.10;0.10;;;;;;;;;;6191376;23;20027;-89
2023/08/05 13:02:45;;;;;;;0.00;0.00;;;;;;;;;;6190833;23;20054;-89
2023/08/05 13:05:11;;;;;;;0.20;0.20;;;;;;;;;;6190737;22;20068;-90
2023/08/05 13:11:03;;;;;;;0.10;0.10;;;;;;;;;;6243711;23;20529;-88
2023/08/05 13:13:29;;;;;;;0.00;0.00;;;;;;;;;;6190834;23;20376;-89
2023/08/05 13:16:01;;;;;;;0.00;0.00;;;;;;;;;;6191340;23;20095;-90
2023/08/05 13:21:47;;;;;;;0.15;0.15;;;;;;;;;;6216269;23;20024;-89
2023/08/05 13:24:24;;;;;;;0.10;0.10;;;;;;;;;;6190224;23;20016;-89
2023/08/05 13:26:50;;;;;;;0.03;0.03;;;;;;;;;;6190424;23;20016;-88
2023/08/05 13:29:16;;;;;;;0.00;0.00;;;;;;;;;;6190884;23;20016;-89
2023/08/05 13:31:45;;;;;;;0.00;0.00;;;;;;;;;;6190356;23;20016;-90
2023/08/05 13:34:17;;;;;;;0.10;0.10;;;;;;;;;;6190377;23;20036;-89
2023/08/05 13:36:49;;;;;;;0.10;0.10;;;;;;;;;;6189401;23;20012;-89
2023/08/05 13:39:15;;;;;;;0.00;0.00;;;;;;;;;;6190182;23;20073;-89
2023/08/05 13:41:41;;;;;;;0.10;0.10;;;;;;;;;;6214423;23;20020;-91
2023/08/05 13:44:07;;;;;;;0.10;0.10;;;;;;;;;;6190477;23;20081;-90
2023/08/05 13:46:33;;;;;;;0.00;0.00;;;;;;;;;;6190267;23;20431;-90
2023/08/05 13:48:59;;;;;;;0.03;0.03;;;;;;;;;;6189887;23;20441;-88
2023/08/05 13:51:25;;;;;;;0.00;0.00;;;;;;;;;;6190047;23;20012;-90
2023/08/05 13:53:51;;;;;;;0.10;0.10;;;;;;;;;;6190276;23;20408;-87
2023/08/05 13:56:18;;;;;;;0.20;0.20;;;;;;;;;;6189270;23;20016;-86
2023/08/05 13:58:44;;;;;;;0.10;0.10;;;;;;;;;;6189570;23;20020;-87
2023/08/05 14:01:13;;;;;;;0.20;0.20;;;;;;;;;;6189117;23;20020;-87
2023/08/05 14:03:40;;;;;;;0.10;0.10;;;;;;;;;;6214497;23;20023;-87
2023/08/05 14:06:06;;;;;;;0.15;0.15;;;;;;;;;;6214478;23;20020;-86
2023/08/05 14:08:32;;;;;;;0.10;0.10;;;;;;;;;;6213880;23;20026;-88
2023/08/05 14:10:58;;;;;;;0.10;0.10;;;;;;;;;;6188881;23;20012;-87
2023/08/05 14:13:24;;;;;;;0.08;0.08;;;;;;;;;;6189214;23;20027;-87
2023/08/05 14:15:53;;;;;;;0.10;0.10;;;;;;;;;;6189070;23;20466;-88
2023/08/05 14:18:20;;;;;;;0.10;0.10;;;;;;;;;;6165550;23;20016;-87
2023/08/05 14:20:46;;;;;;;0.10;0.10;;;;;;;;;;6189142;23;20023;-88
2023/08/05 14:23:12;;;;;;;0.20;0.20;;;;;;;;;;6188923;23;20045;-87
2023/08/05 14:25:38;;;;;;;0.20;0.20;;;;;;;;;;6189589;23;20020;-86
2023/08/05 14:28:04;;;;;;;0.10;0.10;;;;;;;;;;6189640;23;20024;-88
2023/08/05 14:30:30;;;;;;;0.10;0.10;;;;;;;;;;6189681;23;20023;-87
2023/08/05 14:32:56;;;;;;;0.10;0.10;;;;;;;;;;6189402;23;20016;-88
2023/08/05 14:35:22;;;;;;;0.10;0.10;;;;;;;;;;6189596;23;20469;-89
2023/08/05 14:37:48;;;;;;;0.10;0.10;;;;;;;;;;6189322;23;20094;-88
2023/08/05 14:40:14;;;;;;;0.20;0.20;;;;;;;;;;6189987;23;20038;-89
2023/08/05 14:42:41;;;;;;;0.10;0.10;;;;;;;;;;6214496;23;20051;-89
2023/08/05 14:45:07;;;;;;;0.17;0.17;;;;;;;;;;6189848;23;20080;-88
2023/08/05 14:47:33;;;;;;;0.20;0.20;;;;;;;;;;6189520;23;20077;-89
2023/08/05 14:49:59;;;;;;;0.10;0.10;;;;;;;;;;6189566;23;20095;-90
2023/08/05 14:52:25;;;;;;;0.15;0.15;;;;;;;;;;6189187;23;20023;-89
2023/08/05 14:54:54;;;;;;;0.10;0.10;;;;;;;;;;6214230;23;20016;-89
2023/08/05 14:57:20;;;;;;;0.10;0.10;;;;;;;;;;6189664;23;20024;-90
2023/08/05 14:59:46;;;;;;;0.25;0.25;;;;;;;;;;6189852;23;20060;-89
2023/08/05 15:02:12;;;;;;;0.22;0.22;;;;;;;;;;6189075;23;20647;-90
2023/08/05 15:04:38;;;;;;;0.10;0.10;;;;;;;;;;6188926;23;20095;-87
2023/08/05 15:07:04;;;;;;;0.10;0.10;;;;;;;;;;6189340;23;20016;-89
2023/08/05 15:09:30;;;;;;;0.00;0.00;;;;;;;;;;6189229;23;20020;-90
2023/08/05 15:11:56;;;;;;;0.10;0.10;;;;;;;;;;6214415;23;20063;-89
2023/08/05 15:14:22;;;;;;;0.10;0.10;;;;;;;;;;6189468;23;20064;-89
2023/08/05 15:16:48;;;;;;;0.10;0.10;;;;;;;;;;6189822;23;20081;-89
2023/08/05 15:19:14;;;;;;;0.10;0.10;;;;;;;;;;6189934;22;20090;-90
2023/08/05 15:21:41;;;;;;;0.28;0.28;;;;;;;;;;6189056;23;20072;-90
2023/08/05 15:24:07;;;;;;;0.10;0.10;;;;;;;;;;6189474;23;20027;-89
2023/08/05 15:26:33;;;;;;;0.10;0.10;;;;;;;;;;6189722;23;20414;-90
2023/08/05 15:28:59;;;;;;;0.10;0.10;;;;;;;;;;6189747;23;20021;-91
2023/08/05 15:31:25;;;;;;;0.00;0.00;;;;;;;;;;6189868;23;20016;-90
2023/08/05 15:33:51;;;;;;;0.10;0.10;;;;;;;;;;6189980;23;20447;-89
2023/08/05 15:36:17;;;;;;;0.10;0.10;;;;;;;;;;6214624;23;20023;-89
2023/08/05 15:38:43;;;;;;;0.05;0.05;;;;;;;;;;6190042;23;20019;-90
2023/08/05 15:41:26;;;;;;;0.00;0.00;;;;;;;;;;6189711;23;20020;-89
2023/08/05 15:43:55;;;;;;;0.10;0.10;;;;;;;;;;6214445;23;20020;-90
2023/08/05 15:46:23;;;;;;;0.10;0.10;;;;;;;;;;6189583;23;20094;-90
2023/08/05 15:48:50;;;;;;;0.20;0.20;;;;;;;;;;6189839;23;20344;-90
2023/08/05 15:51:16;;;;;;;0.10;0.10;;;;;;;;;;6189955;23;20012;-90
2023/08/05 15:53:42;;;;;;;0.10;0.10;;;;;;;;;;6189797;23;20016;-90
2023/08/05 15:56:09;;;;;;;0.05;0.05;;;;;;;;;;6189440;23;20012;-90
2023/08/05 15:58:36;;;;;;;0.00;0.00;;;;;;;;;;6189921;23;20052;-90
2023/08/05 16:01:03;;;;;;;0.10;0.10;;;;;;;;;;6190837;23;20027;-91
2023/08/05 16:03:29;;;;;;;0.10;0.10;;;;;;;;;;6190703;23;20060;-89
2023/08/05 16:06:02;;;;;;;0.10;0.10;;;;;;;;;;6191003;23;20016;-89
2023/08/05 16:08:28;;;;;;;0.10;0.10;;;;;;;;;;6191253;23;20023;-90
2023/08/05 16:11:13;;;;;;;0.10;0.10;;;;;;;;;;6190725;23;20073;-89
2023/08/05 16:13:39;;;;;;;0.10;0.10;;;;;;;;;;6191082;23;20431;-90
2023/08/05 16:16:13;;;;;;;0.20;0.20;;;;;;;;;;6215640;23;20099;-90
2023/08/05 16:18:40;;;;;;;0.10;0.10;;;;;;;;;;6215689;23;20051;-91
2023/08/05 16:21:13;;;;;;;0.10;0.10;;;;;;;;;;6215816;23;20020;-90
2023/08/05 16:23:39;;;;;;;0.10;0.10;;;;;;;;;;6190919;23;20020;-91
2023/08/05 16:26:08;;;;;;;0.20;0.20;;;;;;;;;;6190535;23;20068;-90
2023/08/05 16:28:35;;;;;;;0.10;0.10;;;;;;;;;;6190926;22;20024;-89
2023/08/05 16:31:01;;;;;;;0.00;0.00;;;;;;;;;;6190617;23;20416;-90
2023/08/05 16:33:27;;;;;;;0.10;0.10;;;;;;;;;;6190622;23;20012;-91
2023/08/05 16:35:53;;;;;;;0.10;0.10;;;;;;;;;;6191364;23;20069;-91
2023/08/05 16:38:19;;;;;;;0.20;0.20;;;;;;;;;;6191426;23;20012;-87
2023/08/05 16:40:45;;;;;;;0.10;0.10;;;;;;;;;;6190891;23;20020;-90
2023/08/05 16:43:11;;;;;;;0.20;0.20;;;;;;;;;;6190234;23;20343;-90
2023/08/05 16:45:39;;;;;;;0.00;0.00;;;;;;;;;;6190674;23;20020;-90
2023/08/05 16:48:05;;;;;;;0.10;0.10;;;;;;;;;;6190147;23;20026;-89
2023/08/05 16:50:31;;;;;;;0.17;0.17;;;;;;;;;;6190470;23;20023;-91
2023/08/05 16:52:57;;;;;;;0.10;0.10;;;;;;;;;;6190449;23;20013;-90
2023/08/05 16:55:23;;;;;;;0.10;0.10;;;;;;;;;;6214961;23;20062;-90
2023/08/05 16:57:49;;;;;;;0.10;0.10;;;;;;;;;;6215393;23;20099;-89
2023/08/05 17:00:15;;;;;;;0.13;0.13;;;;;;;;;;6215386;23;20016;-90
2023/08/05 17:02:42;;;;;;;0.20;0.20;;;;;;;;;;6214343;23;20019;-89
2023/08/05 17:05:09;;;;;;;0.00;0.00;;;;;;;;;;6190256;23;20343;-88
2023/08/05 17:07:35;;;;;;;0.10;0.10;;;;;;;;;;6214315;23;20012;-89
2023/08/05 17:10:01;;;;;;;0.10;0.10;;;;;;;;;;6189037;23;20055;-89
2023/08/05 17:12:27;;;;;;;0.10;0.10;;;;;;;;;;6188917;23;20016;-88
2023/08/05 17:14:53;;;;;;;0.10;0.10;;;;;;;;;;6189804;23;20016;-89
2023/08/05 17:17:19;;;;;;;0.20;0.20;;;;;;;;;;6190035;23;20016;-87
2023/08/05 17:19:45;;;;;;;0.10;0.10;;;;;;;;;;6189616;23;20100;-89
2023/08/05 17:22:11;;;;;;;0.10;0.10;;;;;;;;;;6188890;23;20024;-89
2023/08/05 17:24:37;;;;;;;0.20;0.20;;;;;;;;;;6215187;23;20055;-90
2023/08/05 17:27:05;;;;;;;0.00;0.00;;;;;;;;;;6189610;23;20632;-89
2023/08/05 17:29:31;;;;;;;0.10;0.10;;;;;;;;;;6189261;23;20017;-88
2023/08/05 17:31:57;;;;;;;0.10;0.10;;;;;;;;;;6189148;23;20016;-89
2023/08/05 17:34:23;;;;;;;0.00;0.00;;;;;;;;;;6188987;23;20069;-89
2023/08/05 17:36:49;;;;;;;0.30;0.30;;;;;;;;;;6188256;23;20614;-86
2023/08/05 17:39:17;;;;;;;0.15;0.15;;;;;;;;;;6188809;23;20095;-88
2023/08/05 17:41:49;;;;;;;0.00;0.00;;;;;;;;;;6188152;23;20076;-87
2023/08/05 17:44:16;;;;;;;0.10;0.10;;;;;;;;;;6188377;23;20324;-88
2023/08/05 17:46:58;;;;;;;0.10;0.10;;;;;;;;;;6188509;23;20019;-88
2023/08/05 17:49:24;;;;;;;0.10;0.10;;;;;;;;;;6188866;23;20027;-89
2023/08/05 17:51:50;;;;;;;0.10;0.10;;;;;;;;;;6188847;23;20012;-89
2023/08/05 17:54:16;;;;;;;0.10;0.10;;;;;;;;;;6189249;23;20016;-88
2023/08/05 17:56:44;;;;;;;0.10;0.10;;;;;;;;;;6189243;23;20343;-89
2023/08/05 17:59:11;;;;;;;0.10;0.10;;;;;;;;;;6214573;23;20016;-89
2023/08/05 18:01:37;;;;;;;0.10;0.10;;;;;;;;;;6213718;23;20547;-87
2023/08/05 18:04:03;;;;;;;0.13;0.13;;;;;;;;;;6189398;23;20094;-88
2023/08/05 18:06:29;;;;;;;0.20;0.20;;;;;;;;;;6189519;23;20098;-87
2023/08/05 18:08:55;;;;;;;0.13;0.13;;;;;;;;;;6214033;23;20343;-88
2023/08/05 18:11:22;;;;;;;0.10;0.10;;;;;;;;;;6188669;23;20024;-88
2023/08/05 18:13:48;;;;;;;0.10;0.10;;;;;;;;;;6189318;23;20350;-89
2023/08/05 18:16:14;;;;;;;0.10;0.10;;;;;;;;;;6188813;23;20023;-88
2023/08/05 18:18:41;;;;;;;0.10;0.10;;;;;;;;;;6213807;23;20024;-88
2023/08/05 18:21:08;;;;;;;0.10;0.10;;;;;;;;;;6213442;23;20016;-87
2023/08/05 18:23:34;;;;;;;0.20;0.20;;;;;;;;;;6187644;23;20020;-88
2023/08/05 18:26:01;;;;;;;0.10;0.10;;;;;;;;;;6188940;23;20136;-88
2023/08/05 18:28:27;;;;;;;0.10;0.10;;;;;;;;;;6188822;23;20027;-87
2023/08/05 18:31:04;;;;;;;0.10;0.10;;;;;;;;;;6188459;23;20099;-88
2023/08/05 18:33:30;;;;;;;0.20;0.20;;;;;;;;;;6188617;23;20068;-88
2023/08/05 18:35:57;;;;;;;0.10;0.10;;;;;;;;;;6188403;23;20016;-89
2023/08/05 18:38:23;;;;;;;0.10;0.10;;;;;;;;;;6188832;23;20016;-88
2023/08/05 18:40:49;;;;;;;0.10;0.10;;;;;;;;;;6188982;23;20027;-87
2023/08/05 18:43:15;;;;;;;0.20;0.20;;;;;;;;;;6188222;23;20051;-89
2023/08/05 18:45:42;;;;;;;0.10;0.10;;;;;;;;;;6189517;23;20031;-89
2023/08/05 18:48:08;;;;;;;0.20;0.20;;;;;;;;;;6214819;23;20019;-91
2023/08/05 18:50:34;;;;;;;0.30;0.30;;;;;;;;;;6189739;23;20446;-89
2023/08/05 18:53:00;;;;;;;0.00;0.00;;;;;;;;;;6189965;23;20065;-91
2023/08/05 18:55:26;;;;;;;0.10;0.10;;;;;;;;;;6189867;23;20023;-88
2023/08/05 18:57:52;;;;;;;0.20;0.20;;;;;;;;;;6189638;23;20477;-89
2023/08/05 19:00:18;;;;;;;0.08;0.08;;;;;;;;;;6190607;23;20012;-90
2023/08/05 19:02:44;;;;;;;0.10;0.10;;;;;;;;;;6189871;23;20473;-91